Welcome to Northern Hawkes Bay. New Zealand.
PWS Header
      nz Flag



Hit Counter


W3C Valid W3C Valid logo


    Wairoa

Select any of the Stations below to visit their websites.










Historic Data from Weather Underground
Select the location of interest below. Wairoa is the default. Please have patience, this Data is slow to load in.
Northern Hawkes Bay Historical Data
Daily Summary for January 13, 2017 Units:  Metric    English   Both
« Previous Day
Next Day »
Daily Weekly Monthly Yearly Custom
  High: Low: Average:
Temperature: 26.2 °C 15.4 °C 21.9 °C
Dew Point: 16.8 °C 8.5 °C 13.8 °C
Humidity: 88% 33% 61%
Wind Speed: 19.5km/h 0.0km/h 7.3km/h
Wind Gust: 28.0km/h - -
Wind- - SSW
Pressure: 1008.4 hPa 1002.6 hPa -
Precipitation: 0.0 mm    
Historical Graphs
 
 
Tabular Data for January 13, 2017
Time Temperature Dew Point Pressure Wind Wind Speed Wind Gust Humidity Rainfall Rate (Hourly) solar
00:03 21.9 °C 14.3 °C 1003.3 hPa North 15.8 km/h 28.0 km/h 62% 0.0 mm 0 W/m2
00:08 21.9 °C 14.3 °C 1003.3 hPa North 12.2 km/h 28.0 km/h 62% 0.0 mm 0 W/m2
00:13 21.9 °C 14.3 °C 1003.3 hPa North 8.7 km/h 28.0 km/h 62% 0.0 mm 0 W/m2
00:18 21.8 °C 14.4 °C 1003.3 hPa North 12.2 km/h 25.6 km/h 63% 0.0 mm 0 W/m2
00:23 21.9 °C 14.6 °C 1003.3 hPa North 14.8 km/h 21.9 km/h 63% 0.0 mm 0 W/m2
00:28 21.9 °C 14.6 °C 1003.3 hPa North 9.7 km/h 27.0 km/h 63% 0.0 mm 0 W/m2
00:33 21.9 °C 14.6 °C 1002.9 hPa North 15.8 km/h 27.0 km/h 63% 0.0 mm 0 W/m2
00:38 21.9 °C 14.6 °C 1002.9 hPa North 12.2 km/h 21.9 km/h 63% 0.0 mm 0 W/m2
00:43 21.9 °C 14.6 °C 1003.6 hPa North 19.5 km/h 25.6 km/h 63% 0.0 mm 0 W/m2
00:48 22.0 °C 14.4 °C 1003.9 hPa NNW 12.2 km/h 25.6 km/h 62% 0.0 mm 0 W/m2
00:53 22.0 °C 14.4 °C 1003.6 hPa NNW 7.2 km/h 25.6 km/h 62% 0.0 mm 0 W/m2
00:58 22.0 °C 14.4 °C 1003.6 hPa North 14.8 km/h 23.3 km/h 62% 0.0 mm 0 W/m2
01:03 22.0 °C 14.4 °C 1003.3 hPa North 8.7 km/h 24.5 km/h 62% 0.0 mm 0 W/m2
01:08 22.0 °C 14.4 °C 1003.3 hPa North 12.2 km/h 24.5 km/h 62% 0.0 mm 0 W/m2
01:13 22.0 °C 14.4 °C 1003.6 hPa North 12.2 km/h 27.0 km/h 62% 0.0 mm 0 W/m2
01:18 22.0 °C 14.4 °C 1003.9 hPa NNW 5.0 km/h 27.0 km/h 62% 0.0 mm 0 W/m2
01:23 22.0 °C 14.4 °C 1003.6 hPa NNW 7.2 km/h 24.5 km/h 62% 0.0 mm 0 W/m2
01:28 22.0 °C 14.4 °C 1003.9 hPa NW 12.2 km/h 13.4 km/h 62% 0.0 mm 0 W/m2
01:33 22.0 °C 14.4 °C 1003.9 hPa NNW 5.0 km/h 18.3 km/h 62% 0.0 mm 0 W/m2
01:38 21.9 °C 14.8 °C 1003.9 hPa NNW 8.7 km/h 18.3 km/h 64% 0.0 mm 0 W/m2
01:43 21.8 °C 14.7 °C 1003.6 hPa NNW 7.2 km/h 13.4 km/h 64% 0.0 mm 0 W/m2
01:48 21.8 °C 14.7 °C 1003.3 hPa NNW 9.7 km/h 15.8 km/h 64% 0.0 mm 0 W/m2
01:53 21.9 °C 14.8 °C 1003.6 hPa NNW 7.2 km/h 15.8 km/h 64% 0.0 mm 0 W/m2
01:58 22.0 °C 14.7 °C 1003.6 hPa NW 5.0 km/h 15.8 km/h 63% 0.0 mm 0 W/m2
02:03 21.8 °C 15.2 °C 1003.6 hPa WNW 5.0 km/h 13.4 km/h 66% 0.0 mm 0 W/m2
02:08 21.4 °C 15.5 °C 1003.3 hPa NNW 7.2 km/h 11.1 km/h 69% 0.0 mm 0 W/m2
02:13 21.3 °C 15.4 °C 1003.3 hPa North 5.0 km/h 14.8 km/h 69% 0.0 mm 0 W/m2
02:18 21.4 °C 15.3 °C 1003.3 hPa North 5.0 km/h 14.8 km/h 68% 0.0 mm 0 W/m2
02:23 21.4 °C 15.3 °C 1003.3 hPa NNW 3.5 km/h 13.4 km/h 68% 0.0 mm 0 W/m2
02:28 21.3 °C 15.4 °C 1003.3 hPa NNW 3.5 km/h 7.2 km/h 69% 0.0 mm 0 W/m2
02:33 21.3 °C 15.4 °C 1002.9 hPa NW 6.1 km/h 11.1 km/h 69% 0.0 mm 0 W/m2
02:38 21.2 °C 15.3 °C 1002.9 hPa NNW 9.7 km/h 13.4 km/h 69% 0.0 mm 0 W/m2
02:43 21.1 °C 15.4 °C 1002.9 hPa NNW 8.7 km/h 14.8 km/h 70% 0.0 mm 0 W/m2
02:48 21.1 °C 15.4 °C 1002.6 hPa NNW 7.2 km/h 17.2 km/h 70% 0.0 mm 0 W/m2
02:53 21.0 °C 15.3 °C 1002.9 hPa NNW 5.0 km/h 17.2 km/h 70% 0.0 mm 0 W/m2
02:58 21.0 °C 15.3 °C 1002.9 hPa NNW 7.2 km/h 13.4 km/h 70% 0.0 mm 0 W/m2
03:03 21.0 °C 15.1 °C 1002.9 hPa NNE 3.5 km/h 9.7 km/h 69% 0.0 mm 0 W/m2
03:08 20.9 °C 15.4 °C 1002.9 hPa North 3.5 km/h 9.7 km/h 71% 0.0 mm 0 W/m2
03:13 20.7 °C 15.5 °C 1002.9 hPa North 2.6 km/h 7.2 km/h 72% 0.0 mm 0 W/m2
03:18 20.8 °C 15.6 °C 1002.9 hPa NNW 12.2 km/h 20.9 km/h 72% 0.0 mm 0 W/m2
03:23 21.3 °C 15.2 °C 1002.9 hPa NNW 12.2 km/h 20.9 km/h 68% 0.0 mm 0 W/m2
03:29 21.4 °C 15.1 °C 1002.9 hPa NNW 12.2 km/h 23.3 km/h 67% 0.0 mm 0 W/m2
03:34 21.6 °C 15.2 °C 1002.6 hPa NNW 12.2 km/h 23.3 km/h 67% 0.0 mm 0 W/m2
03:39 21.6 °C 15.2 °C 1002.9 hPa NNW 13.4 km/h 21.9 km/h 67% 0.0 mm 0 W/m2
03:44 21.6 °C 15.2 °C 1002.9 hPa NNW 18.3 km/h 24.5 km/h 67% 0.0 mm 0 W/m2
03:49 21.6 °C 15.2 °C 1003.3 hPa NW 14.8 km/h 24.5 km/h 67% 0.0 mm 0 W/m2
03:54 21.6 °C 15.2 °C 1002.9 hPa NNW 12.2 km/h 24.5 km/h 67% 0.0 mm 0 W/m2
03:59 21.6 °C 15.2 °C 1002.9 hPa NNW 14.8 km/h 20.9 km/h 67% 0.0 mm 0 W/m2
04:04 21.6 °C 15.2 °C 1002.9 hPa NNW 11.1 km/h 20.9 km/h 67% 0.0 mm 0 W/m2
04:09 21.6 °C 15.0 °C 1002.9 hPa NNW 9.7 km/h 20.9 km/h 66% 0.0 mm 0 W/m2
04:14 21.7 °C 15.1 °C 1002.9 hPa NNW 13.4 km/h 19.5 km/h 66% 0.0 mm 0 W/m2
04:19 21.8 °C 15.2 °C 1002.9 hPa NW 8.7 km/h 18.3 km/h 66% 0.0 mm 0 W/m2
04:24 21.7 °C 15.1 °C 1002.9 hPa NW 11.1 km/h 18.3 km/h 66% 0.0 mm 0 W/m2
04:29 21.6 °C 15.2 °C 1002.9 hPa North 8.7 km/h 18.3 km/h 67% 0.0 mm 0 W/m2
04:34 21.6 °C 15.2 °C 1002.9 hPa North 11.1 km/h 18.3 km/h 67% 0.0 mm 0 W/m2
04:39 21.6 °C 15.0 °C 1002.9 hPa North 5.0 km/h 19.5 km/h 66% 0.0 mm 0 W/m2
04:44 21.6 °C 15.0 °C 1002.6 hPa North 6.1 km/h 19.5 km/h 66% 0.0 mm 0 W/m2
04:49 21.7 °C 15.1 °C 1002.6 hPa North 7.2 km/h 15.8 km/h 66% 0.0 mm 0 W/m2
04:54 21.7 °C 15.1 °C 1002.6 hPa North 8.7 km/h 21.9 km/h 66% 0.0 mm 0 W/m2
04:59 21.8 °C 15.2 °C 1002.9 hPa NNW 12.2 km/h 21.9 km/h 66% 0.0 mm 0 W/m2
05:04 21.9 °C 15.3 °C 1002.9 hPa NNW 11.1 km/h 19.5 km/h 66% 0.0 mm 0 W/m2
05:09 21.9 °C 15.3 °C 1002.9 hPa NNW 6.1 km/h 19.5 km/h 66% 0.0 mm 0 W/m2
05:14 21.8 °C 15.2 °C 1002.9 hPa NNW 12.2 km/h 19.5 km/h 66% 0.0 mm 0 W/m2
05:19 21.8 °C 15.2 °C 1002.9 hPa North 7.2 km/h 19.5 km/h 66% 0.0 mm 0 W/m2
05:24 21.8 °C 15.2 °C 1002.9 hPa North 15.8 km/h 21.9 km/h 66% 0.0 mm 0 W/m2
05:29 21.8 °C 15.2 °C 1002.6 hPa NNW 8.7 km/h 21.9 km/h 66% 0.0 mm 0 W/m2
05:34 21.7 °C 15.1 °C 1002.6 hPa NNW 8.7 km/h 21.9 km/h 66% 0.0 mm 0 W/m2
05:39 21.7 °C 15.1 °C 1002.6 hPa NW 6.1 km/h 18.3 km/h 66% 0.0 mm 0 W/m2
05:44 21.7 °C 15.1 °C 1002.6 hPa NW 8.7 km/h 17.2 km/h 66% 0.0 mm 0 W/m2
05:49 21.7 °C 15.1 °C 1002.9 hPa NNW 6.1 km/h 15.8 km/h 66% 0.0 mm 0 W/m2
05:54 21.6 °C 15.0 °C 1002.6 hPa NNW 7.2 km/h 15.8 km/h 66% 0.0 mm 0 W/m2
05:59 21.5 °C 15.1 °C 1002.6 hPa NNW 5.0 km/h 12.2 km/h 67% 0.0 mm 0 W/m2
06:05 21.4 °C 15.1 °C 1002.9 hPa North 5.0 km/h 11.1 km/h 67% 0.0 mm 3 W/m2
06:10 21.3 °C 14.9 °C 1002.6 hPa North 6.1 km/h 9.7 km/h 67% 0.0 mm 6 W/m2
06:15 21.2 °C 14.8 °C 1002.9 hPa North 2.6 km/h 9.7 km/h 67% 0.0 mm 10 W/m2
06:20 21.1 °C 14.7 °C 1002.9 hPa NNE 2.6 km/h 8.7 km/h 67% 0.0 mm 14 W/m2
06:25 21.1 °C 15.0 °C 1002.9 hPa Calm   8.7 km/h 68% 0.0 mm 19 W/m2
06:30 21.1 °C 14.7 °C 1003.3 hPa North 1.1 km/h 5.0 km/h 67% 0.0 mm 25 W/m2
06:35 21.2 °C 15.1 °C 1003.3 hPa NNE 1.1 km/h 9.7 km/h 68% 0.0 mm 31 W/m2
06:40 21.2 °C 15.1 °C 1003.3 hPa NNE 1.1 km/h 9.7 km/h 68% 0.0 mm 36 W/m2
06:45 21.1 °C 15.0 °C 1003.3 hPa NNE 3.5 km/h 7.2 km/h 68% 0.0 mm 42 W/m2
06:50 21.3 °C 15.2 °C 1003.3 hPa NNE 1.1 km/h 7.2 km/h 68% 0.0 mm 51 W/m2
06:55 21.4 °C 15.3 °C 1003.3 hPa NNE 3.5 km/h 7.2 km/h 68% 0.0 mm 54 W/m2
07:00 21.4 °C 15.3 °C 1003.3 hPa NNE 5.0 km/h 8.7 km/h 68% 0.0 mm 65 W/m2
07:05 21.4 °C 15.3 °C 1003.3 hPa NNE 5.0 km/h 9.7 km/h 68% 0.0 mm 70 W/m2
07:10 21.5 °C 15.3 °C 1003.3 hPa NNE 2.6 km/h 9.7 km/h 68% 0.0 mm 84 W/m2
07:15 21.7 °C 15.6 °C 1003.3 hPa NNE 3.5 km/h 8.7 km/h 68% 0.0 mm 94 W/m2
07:20 21.9 °C 15.5 °C 1003.3 hPa NNE 5.0 km/h 8.7 km/h 67% 0.0 mm 92 W/m2
07:25 21.9 °C 15.7 °C 1003.6 hPa North 2.6 km/h 8.7 km/h 68% 0.0 mm 99 W/m2
07:30 22.0 °C 15.4 °C 1003.6 hPa North 3.5 km/h 9.7 km/h 66% 0.0 mm 100 W/m2
07:35 22.1 °C 15.4 °C 1003.6 hPa NNE 6.1 km/h 9.7 km/h 66% 0.0 mm 110 W/m2
07:40 22.1 °C 15.7 °C 1003.6 hPa NNE 1.1 km/h 9.7 km/h 67% 0.0 mm 104 W/m2
07:45 22.1 °C 15.9 °C 1003.6 hPa North 5.0 km/h 8.7 km/h 68% 0.0 mm 98 W/m2
07:50 22.2 °C 16.1 °C 1003.9 hPa North 3.5 km/h 7.2 km/h 68% 0.0 mm 102 W/m2
07:55 22.4 °C 16.0 °C 1003.9 hPa North 5.0 km/h 8.7 km/h 67% 0.0 mm 113 W/m2
08:00 22.5 °C 16.1 °C 1003.9 hPa North 3.5 km/h 8.7 km/h 67% 0.0 mm 118 W/m2
08:05 22.7 °C 16.1 °C 1003.9 hPa North 3.5 km/h 7.2 km/h 66% 0.0 mm 128 W/m2
08:10 22.9 °C 16.2 °C 1004.3 hPa North 1.1 km/h 7.2 km/h 66% 0.0 mm 136 W/m2
08:15 23.3 °C 16.6 °C 1004.3 hPa NW 5.0 km/h 6.1 km/h 66% 0.0 mm 164 W/m2
08:20 23.4 °C 16.7 °C 1004.6 hPa West 3.5 km/h 8.7 km/h 66% 0.0 mm 117 W/m2
08:25 23.0 °C 16.8 °C 1004.6 hPa WSW 13.4 km/h 21.9 km/h 68% 0.0 mm 220 W/m2
08:30 21.8 °C 16.8 °C 1004.6 hPa SW 13.4 km/h 21.9 km/h 73% 0.0 mm 254 W/m2
08:35 21.4 °C 16.4 °C 1004.6 hPa SW 6.1 km/h 21.9 km/h 73% 0.0 mm 187 W/m2
08:40 21.3 °C 16.3 °C 1004.6 hPa SW 7.2 km/h 17.2 km/h 73% 0.0 mm 177 W/m2
08:45 21.2 °C 16.2 °C 1005.0 hPa SW 3.5 km/h 15.8 km/h 73% 0.0 mm 193 W/m2
08:50 21.4 °C 16.4 °C 1005.0 hPa SSW 7.2 km/h 15.8 km/h 73% 0.0 mm 257 W/m2
08:55 21.4 °C 16.4 °C 1005.0 hPa SSW 17.2 km/h 21.9 km/h 73% 0.0 mm 194 W/m2
09:00 21.0 °C 16.0 °C 1005.0 hPa SSW 13.4 km/h 21.9 km/h 73% 0.0 mm 154 W/m2
09:05 20.7 °C 15.9 °C 1005.0 hPa SSW 7.2 km/h 20.9 km/h 74% 0.0 mm 380 W/m2
09:10 21.0 °C 16.2 °C 1005.3 hPa SW 11.1 km/h 18.3 km/h 74% 0.0 mm 185 W/m2
09:15 20.8 °C 15.8 °C 1005.3 hPa SW 13.4 km/h 23.3 km/h 73% 0.0 mm 373 W/m2
09:20 20.9 °C 15.9 °C 1005.3 hPa SW 14.8 km/h 23.3 km/h 73% 0.0 mm 315 W/m2
09:25 21.0 °C 15.6 °C 1005.3 hPa SSW 12.2 km/h 23.3 km/h 71% 0.0 mm 234 W/m2
09:30 21.2 °C 15.1 °C 1005.3 hPa SSW 11.1 km/h 23.3 km/h 68% 0.0 mm 201 W/m2
09:35 21.1 °C 14.1 °C 1005.3 hPa SW 11.1 km/h 23.3 km/h 64% 0.0 mm 249 W/m2
09:40 21.3 °C 14.2 °C 1005.3 hPa SW 9.7 km/h 23.3 km/h 64% 0.0 mm 211 W/m2
09:45 21.3 °C 14.7 °C 1005.3 hPa SW 6.1 km/h 19.5 km/h 66% 0.0 mm 343 W/m2
09:50 21.8 °C 14.2 °C 1005.3 hPa SW 13.4 km/h 18.3 km/h 62% 0.0 mm 315 W/m2
09:56 21.8 °C 12.4 °C 1005.3 hPa SSW 11.1 km/h 20.9 km/h 55% 0.0 mm 415 W/m2
10:01 22.0 °C 11.7 °C 1005.3 hPa SSW 12.2 km/h 20.9 km/h 52% 0.0 mm 575 W/m2
10:06 22.0 °C 12.0 °C 1005.0 hPa SW 17.2 km/h 27.0 km/h 53% 0.0 mm 519 W/m2
10:11 21.9 °C 11.9 °C 1005.0 hPa SW 19.5 km/h 27.0 km/h 53% 0.0 mm 460 W/m2
10:16 21.7 °C 12.0 °C 1005.3 hPa SW 11.1 km/h 25.6 km/h 54% 0.0 mm 235 W/m2
10:21 21.6 °C 11.3 °C 1005.3 hPa SW 11.1 km/h 25.6 km/h 52% 0.0 mm 265 W/m2
10:26 21.4 °C 10.8 °C 1005.3 hPa WSW 12.2 km/h 23.3 km/h 51% 0.0 mm 552 W/m2
10:31 21.6 °C 10.4 °C 1005.3 hPa SW 12.2 km/h 20.9 km/h 49% 0.0 mm 288 W/m2
10:36 21.8 °C 9.7 °C 1005.3 hPa SSW 14.8 km/h 21.9 km/h 46% 0.0 mm 441 W/m2
10:41 22.0 °C 9.9 °C 1005.3 hPa SW 14.8 km/h 21.9 km/h 46% 0.0 mm 432 W/m2
10:46 21.7 °C 9.9 °C 1005.3 hPa SW 8.7 km/h 21.9 km/h 47% 0.0 mm 585 W/m2
10:51 22.2 °C 9.4 °C 1005.0 hPa SW 15.8 km/h 20.9 km/h 44% 0.0 mm 864 W/m2
10:56 22.6 °C 9.4 °C 1005.3 hPa SW 12.2 km/h 20.9 km/h 43% 0.0 mm 953 W/m2
11:01 23.1 °C 10.6 °C 1005.0 hPa SW 17.2 km/h 20.9 km/h 45% 0.0 mm 765 W/m2
11:06 23.0 °C 9.4 °C 1004.6 hPa SSW 9.7 km/h 20.9 km/h 42% 0.0 mm 645 W/m2
11:11 23.2 °C 9.9 °C 1005.0 hPa SW 6.1 km/h 20.9 km/h 43% 0.0 mm 850 W/m2
11:16 23.3 °C 9.7 °C 1005.0 hPa SW 8.7 km/h 17.2 km/h 42% 0.0 mm 963 W/m2
11:17 23.4 °C 10.1 °C 1005.0 hPa SW 12.2 km/h 17.2 km/h 43% 0.0 mm 350 W/m2
11:22 23.4 °C 10.1 °C 1005.3 hPa SW 9.7 km/h 17.2 km/h 43% 0.0 mm 816 W/m2
11:27 23.6 °C 9.9 °C 1005.0 hPa SW 12.2 km/h 20.9 km/h 42% 0.0 mm 751 W/m2
11:32 23.2 °C 10.3 °C 1005.0 hPa SSW 13.4 km/h 20.9 km/h 44% 0.0 mm 544 W/m2
11:37 23.5 °C 10.9 °C 1005.0 hPa South 7.2 km/h 18.3 km/h 45% 0.0 mm 752 W/m2
11:43 24.0 °C 11.0 °C 1005.0 hPa SSW 9.7 km/h 19.5 km/h 44% 0.0 mm 842 W/m2
11:48 23.9 °C 11.3 °C 1005.3 hPa SSW 5.0 km/h 19.5 km/h 45% 0.0 mm 989 W/m2
11:53 24.3 °C 10.9 °C 1005.3 hPa South 13.4 km/h 17.2 km/h 43% 0.0 mm 628 W/m2
11:58 24.1 °C 10.8 °C 1005.0 hPa South 7.2 km/h 17.2 km/h 43% 0.0 mm 1120 W/m2
12:03 24.2 °C 11.2 °C 1005.0 hPa South 2.6 km/h 17.2 km/h 44% 0.0 mm 1076 W/m2
12:08 25.0 °C 11.9 °C 1004.6 hPa South 2.6 km/h 15.8 km/h 44% 0.0 mm 1050 W/m2
12:13 25.8 °C 11.9 °C 1004.6 hPa SSE 3.5 km/h 12.2 km/h 42% 0.0 mm 617 W/m2
12:18 24.4 °C 12.1 °C 1005.0 hPa SSE 12.2 km/h 18.3 km/h 46% 0.0 mm 881 W/m2
12:23 23.4 °C 12.1 °C 1004.6 hPa South 11.1 km/h 19.5 km/h 49% 0.0 mm 892 W/m2
12:28 23.8 °C 12.8 °C 1004.6 hPa South 8.7 km/h 19.5 km/h 50% 0.0 mm 901 W/m2
12:33 23.6 °C 12.3 °C 1004.6 hPa South 11.1 km/h 19.5 km/h 49% 0.0 mm 875 W/m2
12:38 23.6 °C 12.3 °C 1004.3 hPa South 11.1 km/h 18.3 km/h 49% 0.0 mm 810 W/m2
12:43 23.2 °C 11.6 °C 1004.6 hPa South 11.1 km/h 19.5 km/h 48% 0.0 mm 743 W/m2
12:48 22.8 °C 11.8 °C 1004.6 hPa South 12.2 km/h 19.5 km/h 50% 0.0 mm 687 W/m2
12:53 23.1 °C 12.1 °C 1004.6 hPa South 14.8 km/h 19.5 km/h 50% 0.0 mm 773 W/m2
12:58 23.0 °C 12.9 °C 1004.6 hPa South 8.7 km/h 19.5 km/h 53% 0.0 mm 942 W/m2
13:03 23.3 °C 12.3 °C 1005.0 hPa SSE 8.7 km/h 19.5 km/h 50% 0.0 mm 649 W/m2
13:08 23.5 °C 12.2 °C 1004.6 hPa SSE 6.1 km/h 19.5 km/h 49% 0.0 mm 884 W/m2
13:13 23.4 °C 12.4 °C 1005.0 hPa SE 7.2 km/h 18.3 km/h 50% 0.0 mm 826 W/m2
13:19 23.3 °C 12.9 °C 1004.6 hPa SSE 11.1 km/h 18.3 km/h 52% 0.0 mm 977 W/m2
13:24 22.8 °C 12.2 °C 1004.6 hPa SSE 9.7 km/h 24.5 km/h 51% 0.0 mm 674 W/m2
13:29 23.2 °C 13.7 °C 1004.6 hPa SSE 11.1 km/h 24.5 km/h 55% 0.0 mm 958 W/m2
13:33 23.1 °C 11.5 °C 1004.6 hPa SE 13.4 km/h 20.9 km/h 48% 0.0 mm 894 W/m2
13:38 23.3 °C 11.7 °C 1004.3 hPa ESE 7.2 km/h 20.9 km/h 48% 0.0 mm 928 W/m2
13:43 24.3 °C 11.3 °C 1003.9 hPa ESE 12.2 km/h 21.9 km/h 44% 0.0 mm 932 W/m2
13:48 24.0 °C 11.3 °C 1003.9 hPa East 5.0 km/h 21.9 km/h 45% 0.0 mm 926 W/m2
13:53 24.7 °C 11.7 °C 1003.9 hPa ENE 8.7 km/h 18.3 km/h 44% 0.0 mm 930 W/m2
13:58 24.7 °C 11.7 °C 1003.9 hPa East 5.0 km/h 14.8 km/h 44% 0.0 mm 924 W/m2
14:03 25.1 °C 11.7 °C 1004.3 hPa ESE 13.4 km/h 21.9 km/h 43% 0.0 mm 921 W/m2
14:08 24.5 °C 10.4 °C 1004.3 hPa SSE 6.1 km/h 21.9 km/h 41% 0.0 mm 908 W/m2
14:13 25.1 °C 10.6 °C 1004.3 hPa SSE 8.7 km/h 21.9 km/h 40% 0.0 mm 904 W/m2
14:18 25.3 °C 10.0 °C 1004.3 hPa SSE 6.1 km/h 13.4 km/h 38% 0.0 mm 903 W/m2
14:23 25.0 °C 10.5 °C 1004.3 hPa SSE 11.1 km/h 17.2 km/h 40% 0.0 mm 894 W/m2
14:28 24.9 °C 11.1 °C 1004.3 hPa SSE 13.4 km/h 18.3 km/h 42% 0.0 mm 882 W/m2
14:33 24.9 °C 11.1 °C 1004.6 hPa SSE 7.2 km/h 19.5 km/h 42% 0.0 mm 873 W/m2
14:38 25.3 °C 10.7 °C 1004.3 hPa SSE 7.2 km/h 19.5 km/h 40% 0.0 mm 869 W/m2
14:43 25.1 °C 10.6 °C 1004.3 hPa SSE 8.7 km/h 19.5 km/h 40% 0.0 mm 860 W/m2
14:48 24.9 °C 11.8 °C 1004.6 hPa SSE 12.2 km/h 19.5 km/h 44% 0.0 mm 851 W/m2
14:53 24.6 °C 13.5 °C 1004.6 hPa South 7.2 km/h 20.9 km/h 50% 0.0 mm 834 W/m2
14:58 24.3 °C 14.4 °C 1005.0 hPa South 8.7 km/h 20.9 km/h 54% 0.0 mm 822 W/m2
15:03 23.8 °C 13.7 °C 1004.6 hPa SE 7.2 km/h 28.0 km/h 53% 0.0 mm 811 W/m2
15:08 24.6 °C 12.6 °C 1004.6 hPa SE 6.1 km/h 28.0 km/h 47% 0.0 mm 810 W/m2
15:13 25.3 °C 12.2 °C 1004.6 hPa SE 5.0 km/h 13.4 km/h 44% 0.0 mm 807 W/m2
15:18 25.6 °C 10.6 °C 1004.6 hPa SE 8.7 km/h 12.2 km/h 39% 0.0 mm 800 W/m2
15:23 25.2 °C 9.1 °C 1004.6 hPa ESE 8.7 km/h 13.4 km/h 36% 0.0 mm 782 W/m2
15:28 25.5 °C 9.8 °C 1004.6 hPa ESE 7.2 km/h 13.4 km/h 37% 0.0 mm 772 W/m2
15:33 26.0 °C 8.5 °C 1004.6 hPa SE 8.7 km/h 17.2 km/h 33% 0.0 mm 777 W/m2
15:38 25.8 °C 8.8 °C 1004.6 hPa SE 5.0 km/h 17.2 km/h 34% 0.0 mm 744 W/m2
15:43 25.9 °C 9.3 °C 1004.6 hPa SE 8.7 km/h 15.8 km/h 35% 0.0 mm 746 W/m2
15:48 26.0 °C 8.5 °C 1004.3 hPa SE 8.7 km/h 15.8 km/h 33% 0.0 mm 730 W/m2
15:53 26.0 °C 8.5 °C 1004.6 hPa ESE 8.7 km/h 15.8 km/h 33% 0.0 mm 721 W/m2
15:58 25.7 °C 9.6 °C 1004.3 hPa ESE 5.0 km/h 19.5 km/h 36% 0.0 mm 703 W/m2
16:03 25.8 °C 9.2 °C 1004.3 hPa ESE 6.1 km/h 19.5 km/h 35% 0.0 mm 696 W/m2
16:08 26.2 °C 10.4 °C 1004.3 hPa ESE 12.2 km/h 18.3 km/h 37% 0.0 mm 687 W/m2
16:13 25.8 °C 12.3 °C 1004.3 hPa SSE 11.1 km/h 19.5 km/h 43% 0.0 mm 671 W/m2
16:18 25.4 °C 12.6 °C 1004.6 hPa SE 7.2 km/h 19.5 km/h 45% 0.0 mm 652 W/m2
16:23 25.3 °C 9.2 °C 1004.3 hPa East 8.7 km/h 17.2 km/h 36% 0.0 mm 644 W/m2
16:28 25.3 °C 9.2 °C 1004.3 hPa ESE 8.7 km/h 17.2 km/h 36% 0.0 mm 627 W/m2
16:33 25.3 °C 10.0 °C 1004.3 hPa SE 7.2 km/h 17.2 km/h 38% 0.0 mm 615 W/m2
16:38 25.3 °C 11.8 °C 1004.3 hPa SE 9.7 km/h 23.3 km/h 43% 0.0 mm 600 W/m2
16:43 25.5 °C 13.1 °C 1004.6 hPa SE 15.8 km/h 28.0 km/h 46% 0.0 mm 586 W/m2
16:48 24.8 °C 15.4 °C 1004.6 hPa SE 8.7 km/h 28.0 km/h 56% 0.0 mm 567 W/m2
16:53 23.6 °C 15.7 °C 1004.6 hPa SE 14.8 km/h 28.0 km/h 61% 0.0 mm 555 W/m2
16:58 22.9 °C 16.0 °C 1004.6 hPa SE 7.2 km/h 27.0 km/h 65% 0.0 mm 536 W/m2
17:03 22.8 °C 15.7 °C 1004.6 hPa SE 11.1 km/h 27.0 km/h 64% 0.0 mm 520 W/m2
17:09 22.7 °C 15.6 °C 1004.6 hPa SE 11.1 km/h 23.3 km/h 64% 0.0 mm 508 W/m2
17:14 23.0 °C 16.1 °C 1004.6 hPa SE 7.2 km/h 23.3 km/h 65% 0.0 mm 416 W/m2
17:19 22.8 °C 15.4 °C 1004.6 hPa SSE 9.7 km/h 23.3 km/h 63% 0.0 mm 339 W/m2
17:24 22.6 °C 15.2 °C 1004.6 hPa SE 14.8 km/h 21.9 km/h 63% 0.0 mm 462 W/m2
17:29 22.4 °C 15.3 °C 1004.6 hPa SE 9.7 km/h 21.9 km/h 64% 0.0 mm 378 W/m2
17:34 22.8 °C 15.7 °C 1004.6 hPa SE 6.1 km/h 18.3 km/h 64% 0.0 mm 416 W/m2
17:39 22.9 °C 15.5 °C 1004.6 hPa SE 8.7 km/h 21.9 km/h 63% 0.0 mm 424 W/m2
17:44 23.1 °C 15.7 °C 1004.6 hPa SE 8.7 km/h 21.9 km/h 63% 0.0 mm 406 W/m2
17:49 22.8 °C 14.9 °C 1004.3 hPa SSE 7.2 km/h 21.9 km/h 61% 0.0 mm 392 W/m2
17:54 22.9 °C 15.3 °C 1004.6 hPa SSE 8.7 km/h 21.9 km/h 62% 0.0 mm 375 W/m2
17:59 22.8 °C 15.2 °C 1004.3 hPa SE 6.1 km/h 21.9 km/h 62% 0.0 mm 362 W/m2
18:04 23.6 °C 15.4 °C 1004.6 hPa SE 5.0 km/h 21.9 km/h 60% 0.0 mm 351 W/m2
18:09 23.6 °C 15.1 °C 1004.6 hPa SSE 11.1 km/h 18.3 km/h 59% 0.0 mm 334 W/m2
18:14 23.5 °C 14.8 °C 1004.6 hPa SSE 9.7 km/h 18.3 km/h 58% 0.0 mm 325 W/m2
18:19 23.6 °C 15.1 °C 1004.6 hPa SE 12.2 km/h 18.3 km/h 59% 0.0 mm 307 W/m2
18:24 23.5 °C 15.3 °C 1005.0 hPa SSE 7.2 km/h 15.8 km/h 60% 0.0 mm 291 W/m2
18:29 23.3 °C 15.1 °C 1004.6 hPa South 9.7 km/h 17.2 km/h 60% 0.0 mm 282 W/m2
18:34 23.3 °C 14.8 °C 1004.6 hPa SSE 6.1 km/h 17.2 km/h 59% 0.0 mm 227 W/m2
18:39 23.3 °C 15.1 °C 1004.3 hPa SE 5.0 km/h 14.8 km/h 60% 0.0 mm 157 W/m2
18:44 23.1 °C 15.2 °C 1004.3 hPa SSE 7.2 km/h 12.2 km/h 61% 0.0 mm 181 W/m2
18:49 22.7 °C 15.1 °C 1004.6 hPa SSE 9.7 km/h 13.4 km/h 62% 0.0 mm 144 W/m2
18:54 22.1 °C 14.5 °C 1004.3 hPa SSE 5.0 km/h 13.4 km/h 62% 0.0 mm 135 W/m2
18:59 21.9 °C 14.8 °C 1004.3 hPa SE 7.2 km/h 13.4 km/h 64% 0.0 mm 137 W/m2
19:04 21.6 °C 14.5 °C 1004.6 hPa SE 7.2 km/h 13.4 km/h 64% 0.0 mm 138 W/m2
19:09 21.9 °C 15.1 °C 1004.3 hPa SE 2.6 km/h 17.2 km/h 65% 0.0 mm 160 W/m2
19:14 22.3 °C 14.9 °C 1004.3 hPa SE 6.1 km/h 17.2 km/h 63% 0.0 mm 183 W/m2
19:19 23.1 °C 15.7 °C 1004.6 hPa SE 5.0 km/h 11.1 km/h 63% 0.0 mm 213 W/m2
19:24 23.5 °C 15.6 °C 1004.6 hPa SSE 5.0 km/h 11.1 km/h 61% 0.0 mm 176 W/m2
19:29 23.6 °C 15.4 °C 1004.6 hPa SE 6.1 km/h 11.1 km/h 60% 0.0 mm 157 W/m2
19:34 23.8 °C 15.1 °C 1004.6 hPa SSE 3.5 km/h 7.2 km/h 58% 0.0 mm 116 W/m2
19:39 23.3 °C 14.3 °C 1005.0 hPa ESE 2.6 km/h 8.7 km/h 57% 0.0 mm 98 W/m2
19:44 23.2 °C 14.2 °C 1004.6 hPa ESE 3.5 km/h 9.7 km/h 57% 0.0 mm 84 W/m2
19:49 23.2 °C 13.9 °C 1005.0 hPa SE 1.1 km/h 9.7 km/h 56% 0.0 mm 113 W/m2
19:54 24.1 °C 13.9 °C 1005.0 hPa SE 2.6 km/h 8.7 km/h 53% 0.0 mm 103 W/m2
19:59 24.2 °C 14.3 °C 1005.0 hPa Calm   7.2 km/h 54% 0.0 mm 89 W/m2
20:04 23.8 °C 14.2 °C 1005.0 hPa SSE 2.6 km/h 7.2 km/h 55% 0.0 mm 40 W/m2
20:09 22.5 °C 13.8 °C 1005.3 hPa SSE 5.0 km/h 11.1 km/h 58% 0.0 mm 44 W/m2
20:14 21.8 °C 14.2 °C 1005.3 hPa SE 6.1 km/h 11.1 km/h 62% 0.0 mm 35 W/m2
20:19 21.2 °C 14.1 °C 1005.6 hPa ESE 2.6 km/h 9.7 km/h 64% 0.0 mm 15 W/m2
20:24 20.6 °C 13.8 °C 1005.6 hPa East 1.1 km/h 8.7 km/h 65% 0.0 mm 11 W/m2
20:29 20.3 °C 13.5 °C 1005.6 hPa Calm   8.7 km/h 65% 0.0 mm 7 W/m2
20:34 20.0 °C 13.7 °C 1005.6 hPa SE 2.6 km/h 5.0 km/h 67% 0.0 mm 4 W/m2
20:39 19.7 °C 14.1 °C 1006.0 hPa ESE 3.5 km/h 7.2 km/h 70% 0.0 mm 1 W/m2
20:44 19.5 °C 14.3 °C 1006.0 hPa East 3.5 km/h 14.8 km/h 72% 0.0 mm 0 W/m2
20:49 19.3 °C 14.3 °C 1006.0 hPa East 2.6 km/h 14.8 km/h 73% 0.0 mm 0 W/m2
20:54 19.3 °C 14.3 °C 1006.0 hPa ESE 1.1 km/h 9.7 km/h 73% 0.0 mm 0 W/m2
20:59 19.1 °C 13.9 °C 1006.0 hPa South 2.6 km/h 7.2 km/h 72% 0.0 mm 0 W/m2
21:04 18.9 °C 14.2 °C 1006.3 hPa WNW 1.1 km/h 3.5 km/h 74% 0.0 mm 0 W/m2
21:09 18.7 °C 14.2 °C 1006.3 hPa SW 2.6 km/h 6.1 km/h 75% 0.0 mm 0 W/m2
21:14 18.6 °C 14.1 °C 1006.3 hPa South 1.1 km/h 7.2 km/h 75% 0.0 mm 0 W/m2
21:19 18.5 °C 14.0 °C 1006.3 hPa Calm   7.2 km/h 75% 0.0 mm 0 W/m2
21:24 18.3 °C 13.8 °C 1006.3 hPa Calm   3.5 km/h 75% 0.0 mm 0 W/m2
21:29 18.1 °C 13.6 °C 1006.7 hPa Calm     75% 0.0 mm 0 W/m2
21:34 18.2 °C 13.7 °C 1006.7 hPa Calm   1.1 km/h 75% 0.0 mm 0 W/m2
21:39 18.2 °C 13.9 °C 1006.7 hPa Calm   3.5 km/h 76% 0.0 mm 0 W/m2
21:44 18.2 °C 13.9 °C 1006.7 hPa Calm   3.5 km/h 76% 0.0 mm 0 W/m2
21:49 18.0 °C 13.7 °C 1007.0 hPa Calm   2.6 km/h 76% 0.0 mm 0 W/m2
21:54 17.9 °C 13.6 °C 1007.0 hPa Calm     76% 0.0 mm 0 W/m2
21:59 17.6 °C 13.3 °C 1007.0 hPa Calm   1.1 km/h 76% 0.0 mm 0 W/m2
22:04 17.6 °C 13.3 °C 1007.0 hPa Calm   1.1 km/h 76% 0.0 mm 0 W/m2
22:09 17.6 °C 13.3 °C 1007.0 hPa Calm   1.1 km/h 76% 0.0 mm 0 W/m2
22:14 17.6 °C 13.3 °C 1007.3 hPa Calm   2.6 km/h 76% 0.0 mm 0 W/m2
22:19 17.6 °C 13.3 °C 1007.3 hPa NW 1.1 km/h 3.5 km/h 76% 0.0 mm 0 W/m2
22:24 17.5 °C 13.4 °C 1007.3 hPa NNW 2.6 km/h 5.0 km/h 77% 0.0 mm 0 W/m2
22:29 17.3 °C 13.4 °C 1007.3 hPa Calm   6.1 km/h 78% 0.0 mm 0 W/m2
22:34 17.2 °C 13.6 °C 1007.3 hPa Calm   6.1 km/h 79% 0.0 mm 0 W/m2
22:36 17.1 °C 13.6 °C 1007.3 hPa NE 1.1 km/h 5.0 km/h 80% 0.0 mm 0 W/m2
22:41 16.9 °C 13.8 °C 1007.3 hPa Calm   3.5 km/h 82% 0.0 mm 0 W/m2
22:46 16.7 °C 13.6 °C 1007.3 hPa NNE 1.1 km/h 3.5 km/h 82% 0.0 mm 0 W/m2
22:51 16.5 °C 13.8 °C 1007.3 hPa Calm   3.5 km/h 84% 0.0 mm 0 W/m2
23:01 16.4 °C 13.9 °C 1007.3 hPa North 2.6 km/h 5.0 km/h 85% 0.0 mm 0 W/m2
23:06 16.3 °C 13.8 °C 1007.7 hPa Calm   5.0 km/h 85% 0.0 mm 0 W/m2
23:11 16.1 °C 13.6 °C 1007.7 hPa Calm   5.0 km/h 85% 0.0 mm 0 W/m2
23:16 16.1 °C 13.6 °C 1007.7 hPa Calm   2.6 km/h 85% 0.0 mm 0 W/m2
23:21 15.9 °C 13.6 °C 1008.0 hPa Calm   1.1 km/h 86% 0.0 mm 0 W/m2
23:26 15.9 °C 13.6 °C 1008.0 hPa Calm     86% 0.0 mm 0 W/m2
23:31 15.8 °C 13.4 °C 1008.0 hPa Calm     86% 0.0 mm 0 W/m2
23:36 15.7 °C 13.6 °C 1008.0 hPa Calm     87% 0.0 mm 0 W/m2
23:41 15.6 °C 13.4 °C 1008.4 hPa Calm     87% 0.0 mm 0 W/m2
23:46 15.5 °C 13.3 °C 1008.4 hPa Calm     87% 0.0 mm 0 W/m2
23:51 15.4 °C 13.3 °C 1008.4 hPa Calm     87% 0.0 mm 0 W/m2
23:56 15.4 °C 13.4 °C 1008.4 hPa Calm     88% 0.0 mm 0 W/m2
Northern Hawkes Bay. New Zealand Historic Data
Compliments of Weather Underground - 2 mb